createdAt,value
2022-08-23T00:00:07.647Z,94.70
2022-08-23T00:02:42.503Z,94.70
2022-08-23T00:05:13.020Z,94.70
2022-08-23T00:07:43.654Z,94.80
2022-08-23T00:10:13.875Z,94.90
2022-08-23T00:12:43.520Z,94.90
2022-08-23T00:15:15.020Z,95.20
2022-08-23T00:17:43.857Z,95.50
2022-08-23T00:20:15.572Z,95.40
2022-08-23T00:22:43.813Z,95.60
2022-08-23T00:25:13.984Z,95.90
2022-08-23T00:27:43.570Z,95.70
2022-08-23T00:30:13.658Z,96.10
2022-08-23T00:32:42.577Z,95.80
2022-08-23T00:35:12.380Z,96.00
2022-08-23T00:37:51.028Z,96.00
2022-08-23T00:40:37.379Z,96.00
2022-08-23T00:43:27.116Z,96.00
2022-08-23T00:46:19.573Z,96.10
2022-08-23T00:48:48.324Z,96.20
2022-08-23T00:51:19.983Z,96.20
2022-08-23T00:53:53.164Z,96.40
2022-08-23T00:56:25.392Z,96.50
2022-08-23T00:58:57.379Z,96.50
2022-08-23T01:01:25.775Z,96.50
2022-08-23T01:03:57.118Z,96.60
2022-08-23T01:06:36.092Z,96.80
2022-08-23T01:09:08.670Z,96.80
2022-08-23T01:11:40.383Z,97.00
2022-08-23T01:14:16.074Z,97.00
2022-08-23T01:16:50.251Z,97.00
2022-08-23T01:19:25.742Z,97.20
2022-08-23T01:22:06.111Z,97.40
2022-08-23T01:24:57.764Z,97.60
2022-08-23T01:27:25.486Z,97.70
2022-08-23T01:29:53.605Z,97.60
2022-08-23T01:32:21.912Z,98.00
2022-08-23T01:34:51.588Z,97.80
2022-08-23T01:37:21.314Z,98.00
2022-08-23T01:39:50.836Z,98.10
2022-08-23T01:42:18.895Z,98.10
2022-08-23T01:44:46.915Z,98.20
2022-08-23T01:47:14.923Z,98.30
2022-08-23T01:49:42.934Z,98.30
2022-08-23T01:52:10.963Z,98.60
2022-08-23T01:54:40.951Z,98.80
2022-08-23T01:57:11.765Z,98.90
2022-08-23T01:59:40.324Z,99.00
2022-08-23T02:02:08.356Z,99.00
2022-08-23T02:04:36.410Z,99.10
2022-08-23T02:07:04.440Z,99.30
2022-08-23T02:09:32.903Z,99.40
2022-08-23T02:12:01.059Z,99.50
2022-08-23T02:14:30.418Z,99.70
2022-08-23T02:17:04.508Z,99.70
2022-08-23T02:19:33.297Z,99.80
2022-08-23T02:22:01.362Z,99.90
2022-08-23T02:24:31.512Z,99.90
2022-08-23T02:27:02.612Z,99.90
2022-08-23T02:29:32.639Z,99.90
2022-08-23T02:32:01.193Z,99.90
2022-08-23T02:37:16.461Z,99.90
2022-08-23T02:39:45.133Z,99.90
2022-08-23T02:42:15.090Z,99.90
2022-08-23T02:44:44.766Z,99.90
2022-08-23T02:47:12.847Z,99.90
2022-08-23T02:49:41.413Z,99.90
2022-08-23T02:52:09.685Z,99.90
2022-08-23T02:54:37.855Z,99.90
2022-08-23T02:57:06.662Z,99.90
2022-08-23T02:59:35.436Z,99.90
2022-08-23T03:02:04.949Z,99.90
2022-08-23T03:04:33.126Z,99.90
2022-08-23T03:07:01.220Z,99.90
2022-08-23T03:09:29.398Z,99.90
2022-08-23T03:11:57.542Z,99.90
2022-08-23T03:14:27.502Z,99.90
2022-08-23T03:16:58.183Z,99.90
2022-08-23T03:19:27.974Z,99.90
2022-08-23T03:21:56.061Z,99.90
2022-08-23T03:24:24.484Z,99.90
2022-08-23T03:26:52.656Z,99.90
2022-08-23T03:29:20.793Z,99.90
2022-08-23T03:31:48.847Z,99.90
2022-08-23T03:34:16.866Z,99.90
2022-08-23T03:36:46.249Z,99.90
2022-08-23T03:39:14.541Z,99.90
2022-08-23T03:41:42.544Z,99.90
2022-08-23T03:44:10.573Z,99.90
2022-08-23T03:46:39.119Z,99.90
2022-08-23T03:49:07.325Z,99.90
2022-08-23T03:51:36.129Z,99.90
2022-08-23T03:54:05.914Z,99.90
2022-08-23T03:56:35.903Z,99.90
2022-08-23T03:59:08.095Z,99.90
2022-08-23T04:01:36.589Z,99.90
2022-08-23T04:04:05.403Z,99.90
2022-08-23T04:06:33.872Z,99.90
2022-08-23T04:09:02.054Z,99.90
2022-08-23T04:11:31.600Z,99.90
2022-08-23T04:13:59.657Z,99.90
2022-08-23T04:16:28.982Z,99.90
2022-08-23T04:18:57.343Z,99.90
2022-08-23T04:21:26.219Z,99.90
2022-08-23T04:23:54.403Z,99.90
2022-08-23T04:26:24.299Z,99.90
2022-08-23T04:28:56.903Z,99.90
2022-08-23T04:31:26.199Z,99.90
2022-08-23T04:33:54.392Z,99.90
2022-08-23T04:36:23.687Z,99.90
2022-08-23T04:38:51.814Z,99.90
2022-08-23T04:41:37.928Z,99.90
2022-08-23T04:44:07.282Z,99.90
2022-08-23T04:46:35.602Z,99.90
2022-08-23T04:49:04.123Z,99.90
2022-08-23T04:51:32.265Z,99.90
2022-08-23T04:54:00.230Z,99.90
2022-08-23T04:56:28.463Z,99.90
2022-08-23T04:58:56.704Z,99.90
2022-08-23T05:01:26.557Z,99.90
2022-08-23T05:03:55.331Z,99.90
2022-08-23T05:06:24.378Z,99.90
2022-08-23T05:08:52.508Z,99.90
2022-08-23T05:11:20.631Z,99.90
2022-08-23T05:13:49.203Z,99.90
2022-08-23T05:16:18.083Z,99.90
2022-08-23T05:18:47.714Z,99.90
2022-08-23T05:21:17.066Z,99.90
2022-08-23T05:23:45.578Z,99.90
2022-08-23T05:26:19.474Z,99.90
2022-08-23T05:28:49.083Z,99.90
2022-08-23T05:31:19.434Z,99.90
2022-08-23T05:33:49.505Z,99.90
2022-08-23T05:36:18.920Z,99.90
2022-08-23T05:38:47.996Z,99.90
2022-08-23T05:41:16.953Z,99.90
2022-08-23T05:43:45.191Z,99.90
2022-08-23T05:46:16.063Z,99.90
2022-08-23T05:48:51.905Z,99.90
2022-08-23T05:51:23.160Z,99.90
2022-08-23T05:53:53.146Z,99.90
2022-08-23T05:56:24.172Z,99.90
2022-08-23T05:58:59.165Z,99.90
2022-08-23T06:01:28.897Z,99.90
2022-08-23T06:03:59.891Z,99.90
2022-08-23T06:06:37.397Z,99.90
2022-08-23T06:09:08.406Z,99.90
2022-08-23T06:11:36.579Z,99.90
2022-08-23T06:14:07.012Z,99.90
2022-08-23T06:16:37.677Z,99.90
2022-08-23T06:19:08.375Z,99.90
2022-08-23T06:21:37.271Z,99.90
2022-08-23T06:24:07.099Z,99.90
2022-08-23T06:26:38.261Z,99.90
2022-08-23T06:29:08.974Z,99.90
2022-08-23T06:31:47.698Z,99.90
2022-08-23T06:34:21.684Z,99.90
2022-08-23T06:36:52.462Z,99.90
2022-08-23T06:39:22.411Z,99.90
2022-08-23T06:41:52.630Z,99.90
2022-08-23T06:44:21.402Z,99.90
2022-08-23T06:46:49.597Z,99.90
2022-08-23T06:49:19.027Z,99.90
2022-08-23T06:51:50.345Z,99.90
2022-08-23T06:54:22.939Z,99.90
2022-08-23T06:56:55.097Z,99.90
2022-08-23T06:59:23.591Z,99.90
2022-08-23T07:01:55.140Z,99.90
2022-08-23T07:04:26.519Z,99.90
2022-08-23T07:06:55.344Z,99.90
2022-08-23T07:09:23.944Z,99.90
2022-08-23T07:11:52.438Z,99.90
2022-08-23T07:14:21.825Z,99.90
2022-08-23T07:16:52.117Z,99.90
2022-08-23T07:19:22.451Z,99.90
2022-08-23T07:21:59.394Z,99.90
2022-08-23T07:24:32.894Z,99.90
2022-08-23T07:27:06.458Z,99.90
2022-08-23T07:29:35.913Z,99.90
2022-08-23T07:32:04.602Z,99.90
2022-08-23T07:34:33.143Z,99.90
2022-08-23T07:37:02.647Z,99.90
2022-08-23T07:39:31.736Z,99.90
2022-08-23T07:42:01.020Z,99.90
2022-08-23T07:44:30.040Z,99.90
2022-08-23T07:46:59.044Z,99.90
2022-08-23T07:49:29.253Z,99.90
2022-08-23T07:51:59.921Z,99.90
2022-08-23T07:54:29.507Z,99.90
2022-08-23T07:56:57.775Z,99.90
2022-08-23T07:59:25.788Z,99.90
2022-08-23T08:01:53.990Z,99.90
2022-08-23T08:04:22.106Z,99.90
2022-08-23T08:07:10.518Z,99.90
2022-08-23T08:09:41.710Z,99.90
2022-08-23T08:12:11.186Z,99.90
2022-08-23T08:14:39.600Z,99.90
2022-08-23T08:17:07.914Z,99.90
2022-08-23T08:19:36.034Z,99.90
2022-08-23T08:22:04.261Z,99.90
2022-08-23T08:24:32.282Z,99.90
2022-08-23T08:27:01.664Z,99.60
2022-08-23T08:29:29.700Z,98.50
2022-08-23T08:31:57.931Z,97.80
2022-08-23T08:34:26.258Z,97.90
2022-08-23T08:36:58.685Z,98.30
2022-08-23T08:39:31.318Z,96.50
2022-08-23T08:42:14.048Z,96.60
2022-08-23T08:44:46.096Z,95.50
2022-08-23T08:47:20.845Z,95.40
2022-08-23T08:49:52.469Z,96.10
2022-08-23T08:52:26.081Z,96.70
2022-08-23T08:55:04.909Z,94.60
2022-08-23T08:57:40.114Z,94.60
2022-08-23T09:00:13.486Z,94.80
2022-08-23T09:02:43.015Z,95.10
2022-08-23T09:05:14.654Z,94.50
2022-08-23T09:07:51.999Z,94.00
2022-08-23T09:10:48.483Z,94.50
2022-08-23T09:13:36.717Z,94.20
2022-08-23T09:16:15.960Z,94.10
2022-08-23T09:18:44.745Z,93.70
2022-08-23T09:21:13.238Z,93.80
2022-08-23T09:23:43.815Z,93.90
2022-08-23T09:26:22.102Z,94.70
2022-08-23T09:28:54.034Z,93.10
2022-08-23T09:31:38.297Z,93.10
2022-08-23T09:34:07.439Z,93.80
2022-08-23T09:36:38.334Z,93.20
2022-08-23T09:39:08.421Z,92.90
2022-08-23T09:41:39.697Z,93.20
2022-08-23T09:44:16.157Z,93.30
2022-08-23T09:46:44.416Z,93.90
2022-08-23T09:49:26.089Z,94.30
2022-08-23T09:51:56.619Z,93.30
2022-08-23T09:54:30.206Z,93.70
2022-08-23T09:57:01.032Z,93.00
2022-08-23T09:59:40.275Z,93.20
2022-08-23T10:02:16.324Z,92.20
2022-08-23T10:04:47.302Z,92.80
2022-08-23T10:07:38.576Z,92.50
2022-08-23T10:10:23.290Z,93.60
2022-08-23T10:12:52.256Z,92.10
2022-08-23T10:15:24.242Z,92.00
2022-08-23T10:18:02.936Z,91.30
2022-08-23T10:20:38.241Z,91.80
2022-08-23T10:23:17.228Z,91.20
2022-08-23T10:25:53.935Z,90.80
2022-08-23T10:28:50.664Z,91.80
2022-08-23T10:31:43.823Z,91.20
2022-08-23T10:34:25.668Z,90.90
2022-08-23T10:37:14.350Z,90.70
2022-08-23T10:39:50.017Z,90.60
2022-08-23T10:42:27.973Z,91.00
2022-08-23T10:45:02.227Z,90.60
2022-08-23T10:47:37.401Z,90.50
2022-08-23T10:50:09.879Z,90.30
2022-08-23T10:52:54.994Z,90.90
2022-08-23T10:55:36.865Z,90.60
2022-08-23T10:58:09.410Z,90.90
2022-08-23T11:00:38.527Z,90.40
2022-08-23T11:03:19.130Z,90.50
2022-08-23T11:06:40.798Z,90.10
2022-08-23T11:09:29.040Z,90.40
2022-08-23T11:12:12.687Z,90.80
2022-08-23T11:14:42.876Z,90.00
2022-08-23T11:17:14.328Z,90.10
2022-08-23T11:19:53.632Z,90.20
2022-08-23T11:22:24.486Z,88.00
2022-08-23T11:25:04.188Z,89.00
2022-08-23T11:27:35.672Z,90.00
2022-08-23T11:30:41.421Z,90.70
2022-08-23T11:33:17.535Z,90.70
2022-08-23T11:35:50.999Z,89.50
2022-08-23T11:38:58.235Z,89.70
2022-08-23T11:41:28.632Z,85.30
2022-08-23T11:44:32.237Z,89.10
2022-08-23T11:47:03.491Z,87.40
2022-08-23T11:49:52.101Z,87.80
2022-08-23T11:52:32.789Z,88.40
2022-08-23T11:55:24.699Z,85.60
2022-08-23T11:58:17.601Z,86.40
2022-08-23T12:01:10.863Z,85.10
2022-08-23T12:03:55.524Z,82.40
2022-08-23T12:06:51.044Z,83.40
2022-08-23T12:09:54.000Z,82.80
2022-08-23T12:12:39.259Z,85.10
2022-08-23T12:15:11.966Z,83.50
2022-08-23T12:18:09.332Z,85.10
2022-08-23T12:20:38.832Z,83.60
2022-08-23T12:23:16.762Z,83.60
2022-08-23T12:25:46.367Z,80.50
2022-08-23T12:28:44.434Z,81.50
2022-08-23T12:31:30.414Z,82.10
2022-08-23T12:34:23.126Z,81.70
2022-08-23T12:37:05.382Z,77.90
2022-08-23T12:39:40.148Z,79.00
2022-08-23T12:42:15.713Z,81.40
2022-08-23T12:44:45.826Z,81.50
2022-08-23T12:47:17.403Z,82.30
2022-08-23T12:49:57.314Z,80.00
2022-08-23T12:52:27.394Z,82.50
2022-08-23T12:54:58.049Z,82.80
2022-08-23T12:57:37.126Z,80.00
2022-08-23T13:00:18.522Z,80.10
2022-08-23T13:02:54.951Z,78.30
2022-08-23T13:05:33.371Z,79.50
2022-08-23T13:08:02.808Z,78.00
2022-08-23T13:10:31.494Z,77.50
2022-08-23T13:13:01.543Z,78.60
2022-08-23T13:15:45.407Z,79.70
2022-08-23T13:18:31.715Z,79.10
2022-08-23T13:21:27.575Z,79.20
2022-08-23T13:23:58.271Z,78.70
2022-08-23T13:26:39.434Z,76.50
2022-08-23T13:29:12.931Z,76.80
2022-08-23T13:32:04.214Z,76.80
2022-08-23T13:34:36.158Z,77.60
2022-08-23T13:37:18.361Z,76.60
2022-08-23T13:39:49.861Z,76.00
2022-08-23T13:42:31.894Z,75.50
2022-08-23T13:45:09.029Z,73.60
2022-08-23T13:47:37.930Z,74.90
2022-08-23T13:50:11.544Z,74.80
2022-08-23T13:53:03.058Z,75.20
2022-08-23T13:55:29.475Z,75.70
2022-08-23T13:57:58.920Z,76.20
2022-08-23T14:00:28.502Z,74.90
2022-08-23T14:02:56.568Z,75.60
2022-08-23T14:05:25.003Z,75.60
2022-08-23T14:07:53.780Z,74.70
2022-08-23T14:10:23.527Z,73.90
2022-08-23T14:12:54.507Z,73.70
2022-08-23T14:15:54.604Z,73.20
2022-08-23T14:18:12.928Z,72.60
2022-08-23T14:20:45.878Z,72.60
2022-08-23T14:23:14.420Z,72.50
2022-08-23T14:25:42.616Z,74.20
2022-08-23T14:28:10.694Z,73.30
2022-08-23T14:30:39.017Z,71.90
2022-08-23T14:33:07.418Z,72.40
2022-08-23T14:35:37.418Z,71.50
2022-08-23T14:38:05.553Z,71.60
2022-08-23T14:40:33.905Z,71.90
2022-08-23T14:43:02.409Z,71.20
2022-08-23T14:45:30.519Z,72.30
2022-08-23T14:47:58.580Z,71.90
2022-08-23T14:50:27.742Z,71.50
2022-08-23T14:52:58.273Z,71.50
2022-08-23T14:55:26.295Z,70.90
2022-08-23T14:57:55.050Z,71.10
2022-08-23T15:00:23.625Z,71.20
2022-08-23T15:02:51.751Z,69.30
2022-08-23T15:05:20.343Z,70.90
2022-08-23T15:07:48.658Z,71.50
2022-08-23T15:13:22.111Z,69.80
2022-08-23T15:15:55.521Z,71.70
2022-08-23T15:18:24.186Z,71.40
2022-08-23T15:20:52.612Z,71.70
2022-08-23T15:23:20.905Z,70.70
2022-08-23T15:25:50.577Z,69.00
2022-08-23T15:28:20.771Z,70.10
2022-08-23T15:30:50.203Z,72.00
2022-08-23T15:33:21.274Z,72.20
2022-08-23T15:35:53.414Z,71.80
2022-08-23T15:38:23.117Z,71.80
2022-08-23T15:40:54.491Z,71.30
2022-08-23T15:43:23.523Z,74.40
2022-08-23T15:45:59.286Z,72.00
2022-08-23T15:48:35.058Z,71.10
2022-08-23T15:51:05.061Z,73.40
2022-08-23T15:53:33.383Z,72.70
2022-08-23T15:56:05.758Z,71.90
2022-08-23T15:58:34.029Z,71.50
2022-08-23T16:01:02.051Z,72.40
2022-08-23T16:03:30.334Z,72.30
2022-08-23T16:05:58.662Z,72.30
2022-08-23T16:08:30.240Z,73.40
2022-08-23T16:10:58.606Z,72.20
2022-08-23T16:13:28.529Z,73.30
2022-08-23T16:15:56.586Z,73.70
2022-08-23T16:18:24.945Z,72.60
2022-08-23T16:20:54.557Z,72.00
2022-08-23T16:23:23.095Z,74.30
2022-08-23T16:25:51.229Z,72.30
2022-08-23T16:28:19.311Z,73.10
2022-08-23T16:30:48.734Z,74.00
2022-08-23T16:33:16.813Z,76.50
2022-08-23T16:35:44.807Z,76.30
2022-08-23T16:38:12.887Z,76.00
2022-08-23T16:40:40.858Z,77.80
2022-08-23T16:43:08.863Z,77.10
2022-08-23T16:45:36.906Z,75.50
2022-08-23T16:48:06.725Z,76.20
2022-08-23T16:50:35.106Z,75.70
2022-08-23T16:53:07.267Z,77.60
2022-08-23T16:55:36.047Z,77.80
2022-08-23T16:58:04.390Z,77.50
2022-08-23T17:00:32.874Z,77.20
2022-08-23T17:03:01.327Z,77.90
2022-08-23T17:05:31.086Z,76.40
2022-08-23T17:07:59.481Z,77.00
2022-08-23T17:10:27.529Z,76.70
2022-08-23T17:12:57.890Z,77.60
2022-08-23T17:15:29.161Z,78.50
2022-08-23T17:17:57.735Z,78.00
2022-08-23T17:20:28.454Z,77.20
2022-08-23T17:22:58.103Z,78.50
2022-08-23T17:25:27.039Z,78.20
2022-08-23T17:27:56.167Z,79.20
2022-08-23T17:30:26.518Z,79.20
2022-08-23T17:32:55.446Z,79.20
2022-08-23T17:35:26.716Z,79.30
2022-08-23T17:37:54.944Z,79.40
2022-08-23T17:40:28.941Z,79.90
2022-08-23T17:42:57.416Z,81.50
2022-08-23T17:45:25.634Z,80.20
2022-08-23T17:47:53.710Z,80.80
2022-08-23T17:50:22.271Z,81.00
2022-08-23T17:52:51.166Z,81.60
2022-08-23T17:55:19.998Z,82.20
2022-08-23T17:57:50.257Z,82.60
2022-08-23T18:00:20.058Z,83.00
2022-08-23T18:02:48.030Z,83.40
2022-08-23T18:05:16.051Z,83.60
2022-08-23T18:07:44.148Z,83.90
2022-08-23T18:10:13.871Z,84.10
2022-08-23T18:12:42.391Z,84.70
2022-08-23T18:15:13.216Z,84.90
2022-08-23T18:17:41.508Z,85.00
2022-08-23T18:20:11.570Z,84.80
2022-08-23T18:22:40.149Z,85.00
2022-08-23T18:25:10.479Z,85.50
2022-08-23T18:27:55.963Z,85.70
2022-08-23T18:30:25.497Z,85.60
2022-08-23T18:32:53.569Z,85.30
2022-08-23T18:35:21.895Z,84.70
2022-08-23T18:37:49.890Z,84.60
2022-08-23T18:40:18.022Z,84.20
2022-08-23T18:42:47.336Z,84.40
2022-08-23T18:45:15.411Z,84.00
2022-08-23T18:47:44.759Z,84.10
2022-08-23T18:50:14.296Z,84.20
2022-08-23T18:52:42.334Z,84.00
2022-08-23T18:55:10.979Z,84.40
2022-08-23T18:57:39.183Z,84.50
2022-08-23T19:00:10.395Z,84.50
2022-08-23T19:02:38.478Z,84.40
2022-08-23T19:05:09.109Z,84.20
2022-08-23T19:07:37.124Z,83.90
2022-08-23T19:10:05.876Z,84.10
2022-08-23T19:12:34.373Z,83.90
2022-08-23T19:15:02.402Z,84.10
2022-08-23T19:17:30.490Z,84.00
2022-08-23T19:19:59.939Z,84.10
2022-08-23T19:22:29.682Z,84.00
2022-08-23T19:24:57.705Z,84.20
2022-08-23T19:27:25.846Z,84.40
2022-08-23T19:29:53.859Z,84.60
2022-08-23T19:32:21.964Z,84.80
2022-08-23T19:34:50.603Z,84.90
2022-08-23T19:37:23.135Z,85.30
2022-08-23T19:39:53.060Z,85.50
2022-08-23T19:42:21.579Z,86.10
2022-08-23T19:44:49.633Z,86.20
2022-08-23T19:47:20.162Z,86.70
2022-08-23T19:49:50.114Z,87.30
2022-08-23T19:52:18.122Z,87.40
2022-08-23T19:54:46.170Z,87.30
2022-08-23T19:57:15.563Z,87.60
2022-08-23T19:59:44.003Z,89.00
2022-08-23T20:02:14.545Z,89.40
2022-08-23T20:04:42.898Z,90.10
2022-08-23T20:07:10.902Z,90.20
2022-08-23T20:09:38.920Z,90.20
2022-08-23T20:12:07.582Z,90.60
2022-08-23T20:14:37.006Z,90.50
2022-08-23T20:17:07.411Z,90.80
2022-08-23T20:19:36.234Z,91.00
2022-08-23T20:22:37.260Z,91.30
2022-08-23T20:25:06.888Z,91.50
2022-08-23T20:27:36.946Z,91.90
2022-08-23T20:30:07.773Z,92.00
2022-08-23T20:32:36.058Z,92.30
2022-08-23T20:35:06.631Z,92.50
2022-08-23T20:37:35.130Z,92.70
2022-08-23T20:40:03.563Z,92.60
2022-08-23T20:42:31.950Z,92.70
2022-08-23T20:45:00.145Z,92.90
2022-08-23T20:47:29.490Z,92.90
2022-08-23T20:49:57.515Z,93.10
2022-08-23T20:52:25.514Z,93.40
2022-08-23T20:54:53.622Z,93.20
2022-08-23T20:57:21.827Z,93.30
2022-08-23T20:59:49.824Z,93.60
2022-08-23T21:02:17.967Z,93.70
2022-08-23T21:04:47.339Z,93.90
2022-08-23T21:07:16.013Z,94.10
2022-08-23T21:09:44.572Z,94.50
2022-08-23T21:12:13.591Z,94.40
2022-08-23T21:14:41.582Z,94.60
2022-08-23T21:17:09.593Z,94.90
2022-08-23T21:19:38.135Z,94.70
2022-08-23T21:22:07.544Z,95.00
2022-08-23T21:24:35.551Z,95.50
2022-08-23T21:27:09.574Z,95.30
2022-08-23T21:29:38.557Z,95.30
2022-08-23T21:32:06.996Z,95.20
2022-08-23T21:34:35.125Z,95.70
2022-08-23T21:37:03.286Z,95.60
2022-08-23T21:39:32.676Z,96.00
2022-08-23T21:42:00.690Z,96.00
2022-08-23T21:44:29.047Z,95.90
2022-08-23T21:46:57.055Z,96.30
2022-08-23T21:49:25.088Z,96.50
2022-08-23T21:51:54.432Z,96.60
2022-08-23T21:54:22.923Z,96.80
2022-08-23T21:56:52.317Z,97.20
2022-08-23T21:59:20.347Z,97.40
2022-08-23T22:01:48.654Z,97.60
2022-08-23T22:04:17.339Z,97.30
2022-08-23T22:06:47.682Z,97.60
2022-08-23T22:09:19.628Z,97.60
2022-08-23T22:11:55.255Z,97.60
2022-08-23T22:14:25.853Z,97.60
2022-08-23T22:17:00.033Z,97.70
2022-08-23T22:19:28.194Z,97.90
2022-08-23T22:21:56.620Z,98.20
2022-08-23T22:24:26.093Z,98.30
2022-08-23T22:26:56.490Z,98.40
2022-08-23T22:29:24.576Z,98.40
2022-08-23T22:31:52.737Z,98.80
2022-08-23T22:34:21.185Z,98.80
2022-08-23T22:36:51.991Z,99.00
2022-08-23T22:39:20.786Z,99.40
2022-08-23T22:41:48.795Z,99.00
2022-08-23T22:44:18.745Z,99.30
2022-08-23T22:46:46.992Z,99.40
2022-08-23T22:49:15.322Z,99.40
2022-08-23T22:51:43.868Z,99.60
2022-08-23T22:54:12.479Z,99.70
2022-08-23T22:56:43.610Z,99.70
2022-08-23T22:59:12.176Z,99.60
2022-08-23T23:01:44.618Z,99.40
2022-08-23T23:04:14.310Z,99.60
2022-08-23T23:06:42.793Z,99.70
2022-08-23T23:09:12.400Z,99.90
2022-08-23T23:11:41.075Z,99.90
2022-08-23T23:14:10.158Z,99.90
2022-08-23T23:16:39.213Z,99.90
2022-08-23T23:19:26.249Z,99.90
2022-08-23T23:21:57.554Z,99.90
2022-08-23T23:24:28.407Z,99.90
2022-08-23T23:26:56.449Z,99.90
2022-08-23T23:29:25.390Z,99.90
2022-08-23T23:31:53.687Z,99.90
2022-08-23T23:34:23.768Z,99.90
2022-08-23T23:36:55.891Z,99.90
2022-08-23T23:39:24.135Z,99.90
2022-08-23T23:41:52.166Z,99.90
2022-08-23T23:44:22.500Z,99.90
2022-08-23T23:46:59.909Z,99.90
2022-08-23T23:49:32.899Z,99.90
2022-08-23T23:52:02.001Z,99.90
2022-08-23T23:54:30.190Z,99.90
2022-08-23T23:56:58.274Z,99.90
2022-08-23T23:59:27.263Z,99.90
